createdAt,value
2019-05-17T00:01:52.421Z,15.13
2019-05-17T00:06:57.032Z,16.15
2019-05-17T00:12:01.398Z,17.85
2019-05-17T00:17:06.736Z,18.65
2019-05-17T00:22:11.094Z,22.98
2019-05-17T00:27:17.088Z,22.65
2019-05-17T00:32:20.783Z,21.60
2019-05-17T00:37:26.467Z,21.85
2019-05-17T00:42:30.673Z,24.47
2019-05-17T00:47:37.205Z,26.07
2019-05-17T00:52:40.474Z,27.45
2019-05-17T00:57:44.509Z,23.57
2019-05-17T01:02:48.617Z,22.22
2019-05-17T01:07:52.753Z,22.98
2019-05-17T01:12:57.530Z,26.00
2019-05-17T01:18:01.829Z,32.60
2019-05-17T01:23:07.514Z,31.97
2019-05-17T01:28:11.725Z,30.23
2019-05-17T01:33:17.138Z,29.92
2019-05-17T01:38:21.521Z,28.15
2019-05-17T01:43:27.425Z,27.35
2019-05-17T01:48:30.963Z,23.35
2019-05-17T01:53:36.456Z,22.15
2019-05-17T01:58:40.799Z,20.90
2019-05-17T02:03:46.776Z,20.75
2019-05-17T02:08:50.504Z,22.35
2019-05-17T02:13:56.196Z,24.20
2019-05-17T02:19:00.396Z,23.32
2019-05-17T02:24:04.420Z,22.35
2019-05-17T02:29:08.451Z,23.92
2019-05-17T02:34:14.108Z,24.43
2019-05-17T02:39:18.042Z,27.50
2019-05-17T02:44:23.556Z,25.40
2019-05-17T02:49:27.843Z,26.73
2019-05-17T02:54:32.850Z,26.62
2019-05-17T02:59:37.309Z,24.47
2019-05-17T03:04:43.276Z,22.55
2019-05-17T03:09:46.903Z,19.87
2019-05-17T03:14:52.856Z,20.55
2019-05-17T03:19:56.706Z,20.90
2019-05-17T03:25:03.187Z,20.27
2019-05-17T03:30:16.801Z,21.35
2019-05-17T03:35:17.668Z,20.50
2019-05-17T03:40:36.319Z,19.62
2019-05-17T03:45:26.873Z,21.20
2019-05-17T03:50:33.515Z,21.62
2019-05-17T03:55:36.667Z,21.93
2019-05-17T04:00:42.824Z,21.85
2019-05-17T04:05:46.364Z,21.85
2019-05-17T04:10:53.026Z,19.15
2019-05-17T04:15:56.150Z,19.17
2019-05-17T04:21:03.133Z,17.52
2019-05-17T04:26:05.836Z,18.37
2019-05-17T04:31:13.213Z,20.52
2019-05-17T04:36:15.427Z,20.25
2019-05-17T04:41:36.022Z,19.77
2019-05-17T04:46:25.028Z,21.23
2019-05-17T04:51:29.053Z,19.37
2019-05-17T04:56:33.538Z,20.20
2019-05-17T05:01:37.841Z,20.90
2019-05-17T05:06:43.596Z,20.88
2019-05-17T05:11:59.577Z,20.00
2019-05-17T05:16:53.034Z,21.57
2019-05-17T05:21:57.226Z,23.22
2019-05-17T05:27:02.586Z,22.73
2019-05-17T05:32:06.896Z,24.77
2019-05-17T05:37:12.580Z,22.00
2019-05-17T05:42:16.484Z,23.98
2019-05-17T05:47:22.170Z,25.77
2019-05-17T05:52:26.068Z,25.60
2019-05-17T05:57:32.068Z,26.70
2019-05-17T06:02:35.866Z,25.40
2019-05-17T06:07:41.688Z,26.50
2019-05-17T06:12:45.540Z,24.60
2019-05-17T06:17:51.909Z,24.72
2019-05-17T06:22:55.248Z,22.13
2019-05-17T06:28:01.418Z,24.27
2019-05-17T06:33:04.946Z,23.67
2019-05-17T06:38:08.966Z,24.55
2019-05-17T06:43:13.409Z,23.55
2019-05-17T06:48:17.606Z,22.85
2019-05-17T06:53:22.857Z,23.20
2019-05-17T06:58:27.122Z,23.02
2019-05-17T07:03:31.251Z,21.57
2019-05-17T07:08:35.121Z,20.70
2019-05-17T07:13:39.624Z,22.15
2019-05-17T07:18:43.840Z,21.12
2019-05-17T07:23:49.807Z,20.00
2019-05-17T07:28:53.642Z,19.32
2019-05-17T07:33:59.706Z,18.95
2019-05-17T07:39:05.260Z,19.05
2019-05-17T07:44:09.900Z,18.82
2019-05-17T07:49:14.254Z,18.55
2019-05-17T07:54:19.747Z,19.12
2019-05-17T07:59:23.937Z,21.23
2019-05-17T08:04:29.905Z,20.95
2019-05-17T08:09:34.646Z,19.77
2019-05-17T08:14:40.031Z,19.62
2019-05-17T08:19:44.349Z,17.98
2019-05-17T08:24:49.366Z,17.42
2019-05-17T08:29:53.473Z,16.32
2019-05-17T08:35:00.124Z,17.42
2019-05-17T08:40:03.022Z,16.80
2019-05-17T08:45:09.512Z,15.85
2019-05-17T08:50:13.107Z,16.20
2019-05-17T08:55:17.141Z,15.63
2019-05-17T09:00:21.155Z,16.00
2019-05-17T09:05:25.300Z,16.70
2019-05-17T09:10:29.994Z,16.30
2019-05-17T09:15:33.937Z,16.02
2019-05-17T09:20:40.227Z,16.62
2019-05-17T09:25:43.391Z,14.95
2019-05-17T09:30:47.294Z,15.63
2019-05-17T09:35:51.457Z,14.25
2019-05-17T09:40:55.598Z,14.40
2019-05-17T09:46:01.566Z,14.05
2019-05-17T09:51:05.013Z,13.22
2019-05-17T09:56:09.941Z,12.73
2019-05-17T10:01:13.973Z,12.28
2019-05-17T10:06:19.992Z,10.60
2019-05-17T10:11:23.377Z,12.15
2019-05-17T10:16:27.281Z,11.78
2019-05-17T10:21:31.177Z,11.68
2019-05-17T10:26:35.089Z,12.13
2019-05-17T10:31:40.080Z,11.10
2019-05-17T10:36:44.088Z,10.63
2019-05-17T10:41:49.934Z,11.10
2019-05-17T10:46:53.500Z,10.90
2019-05-17T10:51:57.315Z,10.58
2019-05-17T10:57:01.267Z,9.85
2019-05-17T11:02:05.245Z,9.03
2019-05-17T11:07:10.479Z,8.58
2019-05-17T11:12:14.543Z,9.43
2019-05-17T11:17:18.373Z,9.00
2019-05-17T11:22:22.313Z,9.30
2019-05-17T11:27:26.214Z,8.68
2019-05-17T11:32:30.124Z,8.83
2019-05-17T11:37:37.062Z,8.13
2019-05-17T11:42:40.954Z,9.63
2019-05-17T11:47:44.820Z,9.90
2019-05-17T11:52:48.717Z,10.10
2019-05-17T11:57:52.613Z,9.88
2019-05-17T12:02:56.493Z,10.03
2019-05-17T12:08:00.393Z,9.73
2019-05-17T12:13:05.169Z,9.38
2019-05-17T12:18:09.033Z,8.13
2019-05-17T12:23:12.977Z,8.75
2019-05-17T12:28:16.881Z,9.25
2019-05-17T12:33:20.759Z,8.93
2019-05-17T12:38:24.758Z,7.47
2019-05-17T12:43:28.621Z,7.80
2019-05-17T12:48:32.517Z,8.20
2019-05-17T12:53:36.390Z,9.10
2019-05-17T12:58:40.287Z,8.40
2019-05-17T13:03:44.209Z,7.40
2019-05-17T13:08:48.121Z,6.22
2019-05-17T13:13:52.062Z,6.28
2019-05-17T13:18:55.915Z,5.20
2019-05-17T13:23:59.871Z,5.53
2019-05-17T13:29:03.864Z,5.35
2019-05-17T13:34:07.730Z,5.83
2019-05-17T13:39:11.598Z,5.97
2019-05-17T13:44:15.470Z,5.70
2019-05-17T13:49:19.345Z,5.62
2019-05-17T13:54:23.257Z,4.90
2019-05-17T13:59:27.147Z,5.47
2019-05-17T14:04:31.046Z,4.47
2019-05-17T14:09:34.916Z,5.55
2019-05-17T14:14:38.819Z,4.70
2019-05-17T14:19:42.687Z,4.67
2019-05-17T14:24:46.569Z,4.90
2019-05-17T14:29:50.450Z,5.50
2019-05-17T14:34:54.303Z,4.90
2019-05-17T14:39:58.244Z,5.20
2019-05-17T14:45:02.324Z,5.60
2019-05-17T14:50:07.959Z,5.70
2019-05-17T14:55:11.945Z,6.40
2019-05-17T15:00:15.936Z,6.20
2019-05-17T15:05:19.823Z,6.53
2019-05-17T15:10:23.713Z,7.00
2019-05-17T15:15:27.638Z,6.95
2019-05-17T15:20:31.521Z,7.20
2019-05-17T15:25:35.427Z,7.90
2019-05-17T15:30:39.309Z,8.00
2019-05-17T15:35:43.192Z,7.58
2019-05-17T15:40:47.076Z,7.62
2019-05-17T15:45:50.959Z,8.23
2019-05-17T15:50:54.835Z,8.03
2019-05-17T15:55:58.691Z,8.30
2019-05-17T16:01:02.544Z,7.53
2019-05-17T16:06:06.436Z,7.83
2019-05-17T16:11:10.369Z,8.53
2019-05-17T16:16:14.260Z,8.70
2019-05-17T16:21:18.148Z,8.65
2019-05-17T16:26:21.992Z,8.53
2019-05-17T16:31:25.958Z,8.73
2019-05-17T16:36:29.836Z,9.60
2019-05-17T16:41:33.717Z,9.23
2019-05-17T16:46:37.587Z,8.85
2019-05-17T16:51:41.500Z,9.13
2019-05-17T16:56:45.424Z,9.00
2019-05-17T17:01:49.377Z,9.43
2019-05-17T17:06:53.244Z,8.30
2019-05-17T17:11:57.146Z,8.90
2019-05-17T17:17:01.065Z,8.83
2019-05-17T17:22:05.093Z,8.33
2019-05-17T17:27:08.982Z,9.53
2019-05-17T17:32:21.153Z,10.03
2019-05-17T17:37:20.828Z,9.90
2019-05-17T17:42:24.739Z,9.93
2019-05-17T17:47:29.628Z,10.50
2019-05-17T17:52:34.963Z,9.60
2019-05-17T17:57:41.520Z,10.48
2019-05-17T18:02:44.568Z,30.37
2019-05-17T18:07:48.421Z,38.53
2019-05-17T18:12:52.312Z,53.92
2019-05-17T18:17:56.151Z,30.05
2019-05-17T18:23:00.094Z,14.05
2019-05-17T18:28:04.047Z,12.53
2019-05-17T18:33:07.977Z,20.08
2019-05-17T18:38:11.881Z,12.55
2019-05-17T18:43:15.741Z,17.35
2019-05-17T18:48:19.636Z,14.13
2019-05-17T18:53:23.529Z,10.88
2019-05-17T18:58:27.416Z,11.30
2019-05-17T19:03:31.293Z,13.65
2019-05-17T19:08:35.164Z,14.83
2019-05-17T19:13:39.065Z,12.33
2019-05-17T19:18:42.948Z,19.02
2019-05-17T19:23:46.837Z,21.85
2019-05-17T19:28:50.710Z,17.12
2019-05-17T19:33:54.609Z,16.93
2019-05-17T19:38:58.514Z,18.02
2019-05-17T19:44:02.377Z,18.70
2019-05-17T19:49:06.400Z,18.92
2019-05-17T19:54:10.364Z,15.95
2019-05-17T19:59:14.264Z,14.73
2019-05-17T20:04:18.138Z,16.15
2019-05-17T20:09:22.022Z,18.40
2019-05-17T20:14:25.901Z,19.45
2019-05-17T20:19:29.774Z,14.28
2019-05-17T20:24:33.675Z,14.33
2019-05-17T20:29:37.548Z,13.72
2019-05-17T20:34:41.438Z,13.95
2019-05-17T20:39:45.328Z,12.85
2019-05-17T20:44:49.209Z,12.82
2019-05-17T20:49:53.086Z,13.08
2019-05-17T20:54:56.937Z,12.45
2019-05-17T21:00:00.879Z,12.40
2019-05-17T21:05:06.687Z,13.13
2019-05-17T21:10:10.873Z,13.30
2019-05-17T21:15:14.767Z,13.70
2019-05-17T21:20:19.554Z,13.03
2019-05-17T21:25:23.417Z,14.40
2019-05-17T21:30:27.347Z,13.45
2019-05-17T21:35:31.291Z,12.50
2019-05-17T21:40:35.177Z,16.02
2019-05-17T21:45:39.085Z,15.88
2019-05-17T21:50:42.975Z,13.43
2019-05-17T21:55:47.041Z,13.55
2019-05-17T22:01:02.959Z,14.18
2019-05-17T22:06:06.843Z,13.50
2019-05-17T22:11:10.729Z,12.93
2019-05-17T22:16:19.651Z,12.78
2019-05-17T22:21:20.459Z,14.33
2019-05-17T22:26:24.346Z,15.58
2019-05-17T22:31:28.196Z,14.30
2019-05-17T22:36:32.097Z,13.28
2019-05-17T22:41:35.962Z,13.15
2019-05-17T22:46:40.017Z,13.83
2019-05-17T22:51:43.911Z,13.08
2019-05-17T22:56:47.827Z,13.60
2019-05-17T23:01:51.724Z,15.30
2019-05-17T23:06:55.613Z,13.88
2019-05-17T23:11:59.503Z,16.35
2019-05-17T23:17:03.376Z,20.00
2019-05-17T23:22:07.275Z,21.55
2019-05-17T23:27:11.156Z,21.48
2019-05-17T23:32:15.119Z,20.10
2019-05-17T23:37:19.034Z,22.15
2019-05-17T23:42:22.981Z,20.43
2019-05-17T23:47:26.861Z,20.77
2019-05-17T23:52:30.757Z,18.20
2019-05-17T23:57:34.633Z,19.02
